sensor_id;sensor_type;location;lat;lon;timestamp;pressure;altitude;pressure_sealevel;temperature;humidity
70943;BME280;59154;51.970;5.650;2023-05-22T00:10:18;101400;;;21.55789;75.0
70943;BME280;59154;51.970;5.650;2023-05-22T01:45:02;101300;;;21.151;75.1
70943;BME280;59154;51.970;5.650;2023-05-22T02:00:07;101300;;;20.97298;75.4
70943;BME280;59154;51.970;5.650;2023-05-22T04:20:15;101300;;;20.3016;79.1
70943;BME280;59154;51.970;5.650;2023-05-22T05:40:08;101300;;;20.25583;79.7
70943;BME280;59154;51.970;5.650;2023-05-22T05:45:02;101300;;;20.40333;79.1
70943;BME280;59154;51.970;5.650;2023-05-22T05:50:02;101300;;;20.42876;79.2
70943;BME280;59154;51.970;5.650;2023-05-22T05:55:10;101300;;;20.561;78.8
70943;BME280;59154;51.970;5.650;2023-05-22T06:00:04;101300;;;20.49997;79.2
70943;BME280;59154;51.970;5.650;2023-05-22T06:45:02;101400;;;21.30867;77.3
70943;BME280;59154;51.970;5.650;2023-05-22T06:50:04;101400;;;21.44091;77.3
70943;BME280;59154;51.970;5.650;2023-05-22T09:05:03;101400;;;23.6331;71.9
70943;BME280;59154;51.970;5.650;2023-05-22T09:10:03;101400;;;23.42456;71.6
70943;BME280;59154;51.970;5.650;2023-05-22T09:30:02;101400;;;24.06544;70.0
70943;BME280;59154;51.970;5.650;2023-05-22T09:35:03;101400;;;24.31976;68.9
70943;BME280;59154;51.970;5.650;2023-05-22T09:40:04;101400;;;24.44183;68.5
70943;BME280;59154;51.970;5.650;2023-05-22T09:45:03;101400;;;24.53339;68.7
70943;BME280;59154;51.970;5.650;2023-05-22T09:50:04;101400;;;24.55373;67.6
70943;BME280;59154;51.970;5.650;2023-05-22T09:55:04;101300;;;24.75719;67.4
70943;BME280;59154;51.970;5.650;2023-05-22T10:00:03;101300;;;24.82331;66.9
70943;BME280;59154;51.970;5.650;2023-05-22T10:05:03;101300;;;25.18445;66.0
70943;BME280;59154;51.970;5.650;2023-05-22T10:10:05;101300;;;25.18445;68.9
70943;BME280;59154;51.970;5.650;2023-05-22T10:15:03;101300;;;25.21496;69.0
70943;BME280;59154;51.970;5.650;2023-05-22T10:20:04;101300;;;25.30652;69.0
70943;BME280;59154;51.970;5.650;2023-05-22T10:25:04;101300;;;25.22514;68.8
70943;BME280;59154;51.970;5.650;2023-05-22T10:30:14;101300;;;25.47437;68.3
70943;BME280;59154;51.970;5.650;2023-05-22T10:35:10;101300;;;25.72361;67.9
70943;BME280;59154;51.970;5.650;2023-05-22T10:40:06;101300;;;25.53541;67.6
70943;BME280;59154;51.970;5.650;2023-05-22T10:45:05;101300;;;25.74396;67.4
70943;BME280;59154;51.970;5.650;2023-05-22T10:50:07;101300;;;25.83551;67.0
70943;BME280;59154;51.970;5.650;2023-05-22T10:55:05;101300;;;25.84568;67.4
70943;BME280;59154;51.970;5.650;2023-05-22T11:00:09;101300;;;25.98811;66.7
70943;BME280;59154;51.970;5.650;2023-05-22T11:05:35;101300;;;26.04406;65.4
70943;BME280;59154;51.970;5.650;2023-05-22T11:20:05;101300;;;26.02371;65.7
70943;BME280;59154;51.970;5.650;2023-05-22T11:25:06;101300;;;26.22717;66.1
70943;BME280;59154;51.970;5.650;2023-05-22T11:30:04;101300;;;26.36959;65.4
70943;BME280;59154;51.970;5.650;2023-05-22T11:35:02;101300;;;26.14579;65.8
70943;BME280;59154;51.970;5.650;2023-05-22T11:40:04;101300;;;26.16105;65.0
70943;BME280;59154;51.970;5.650;2023-05-22T11:45:04;101300;;;26.22717;65.6
70943;BME280;59154;51.970;5.650;2023-05-22T11:50:04;101300;;;26.17122;64.8
70943;BME280;59154;51.970;5.650;2023-05-22T11:55:03;101300;;;26.12544;63.1
70943;BME280;59154;51.970;5.650;2023-05-22T12:00:04;101300;;;26.24243;64.3
70943;BME280;59154;51.970;5.650;2023-05-22T12:05:03;101300;;;26.49676;64.6
70943;BME280;59154;51.970;5.650;2023-05-22T12:10:03;101300;;;26.42554;64.0
70943;BME280;59154;51.970;5.650;2023-05-22T12:15:04;101300;;;26.32381;64.7
70943;BME280;59154;51.970;5.650;2023-05-22T12:20:54;101300;;;26.34925;64.7
70943;BME280;59154;51.970;5.650;2023-05-22T12:25:12;101300;;;26.46115;64.5
70943;BME280;59154;51.970;5.650;2023-05-22T12:30:08;101300;;;26.43572;65.4
70943;BME280;59154;51.970;5.650;2023-05-22T12:35:03;101300;;;26.26786;65.8
70943;BME280;59154;51.970;5.650;2023-05-22T12:40:04;101300;;;26.45606;65.3
70943;BME280;59154;51.970;5.650;2023-05-22T12:45:02;101300;;;26.31364;65.1
70943;BME280;59154;51.970;5.650;2023-05-22T12:50:03;101300;;;26.37977;65.3
70943;BME280;59154;51.970;5.650;2023-05-22T12:55:02;101300;;;26.37468;65.1
70943;BME280;59154;51.970;5.650;2023-05-22T13:00:04;101300;;;26.5171;64.3
70943;BME280;59154;51.970;5.650;2023-05-22T13:05:03;101300;;;26.76125;64.8
70943;BME280;59154;51.970;5.650;2023-05-22T14:10:03;101300;;;24.99625;71.8
70943;BME280;59154;51.970;5.650;2023-05-22T14:15:02;101300;;;24.44692;74.7
70943;BME280;59154;51.970;5.650;2023-05-22T14:20:04;101300;;;24.13665;76.7
70943;BME280;59154;51.970;5.650;2023-05-22T14:25:03;101400;;;23.92811;78.4
70943;BME280;59154;51.970;5.650;2023-05-22T14:30:03;101300;;;23.88742;78.2
70943;BME280;59154;51.970;5.650;2023-05-22T14:35:02;101400;;;24.03492;76.6
70943;BME280;59154;51.970;5.650;2023-05-22T14:40:04;101400;;;24.29432;75.7
70943;BME280;59154;51.970;5.650;2023-05-22T14:45:03;101300;;;24.43674;74.7
70943;BME280;59154;51.970;5.650;2023-05-22T14:50:03;101300;;;24.52321;75.4
70943;BME280;59154;51.970;5.650;2023-05-22T14:55:03;101300;;;24.55373;74.6
70943;BME280;59154;51.970;5.650;2023-05-22T15:00:04;101300;;;24.43674;73.8
70943;BME280;59154;51.970;5.650;2023-05-22T15:05:02;101300;;;24.69615;72.7
70943;BME280;59154;51.970;5.650;2023-05-22T15:10:04;101300;;;24.5283;69.9
70943;BME280;59154;51.970;5.650;2023-05-22T15:30:05;101400;;;24.78771;68.5
70943;BME280;59154;51.970;5.650;2023-05-22T15:45:03;101400;;;24.68598;64.4
70943;BME280;59154;51.970;5.650;2023-05-22T15:50:03;101400;;;24.95556;64.8
70943;BME280;59154;51.970;5.650;2023-05-22T15:55:03;101400;;;25.01151;65.5
70943;BME280;59154;51.970;5.650;2023-05-22T16:00:04;101400;;;24.84874;63.0
70943;BME280;59154;51.970;5.650;2023-05-22T16:05:02;101400;;;25.04203;63.2
70943;BME280;59154;51.970;5.650;2023-05-22T17:10:03;101400;;;24.80296;57.6
70943;BME280;59154;51.970;5.650;2023-05-22T17:15:03;101400;;;24.89961;58.6
70943;BME280;59154;51.970;5.650;2023-05-22T17:20:03;101400;;;24.7165;57.4
70943;BME280;59154;51.970;5.650;2023-05-22T17:25:03;101400;;;25.276;58.0
70943;BME280;59154;51.970;5.650;2023-05-22T17:30:03;101400;;;25.39808;58.0
70943;BME280;59154;51.970;5.650;2023-05-22T17:35:03;101400;;;25.24548;57.4
70943;BME280;59154;51.970;5.650;2023-05-22T17:40:04;101400;;;25.06237;57.9
70943;BME280;59154;51.970;5.650;2023-05-22T17:45:03;101500;;;25.26583;56.4
70943;BME280;59154;51.970;5.650;2023-05-22T17:50:03;101500;;;25.33704;56.4
70943;BME280;59154;51.970;5.650;2023-05-22T17:55:02;101500;;;25.39808;55.6
70943;BME280;59154;51.970;5.650;2023-05-22T18:00:05;101500;;;25.67275;55.7
70943;BME280;59154;51.970;5.650;2023-05-22T18:05:03;101500;;;25.94233;55.5
70943;BME280;59154;51.970;5.650;2023-05-22T18:35:03;101500;;;25.79482;56.5
70943;BME280;59154;51.970;5.650;2023-05-22T18:40:04;101500;;;25.86094;56.1
70943;BME280;59154;51.970;5.650;2023-05-22T18:45:04;101500;;;25.67275;55.8
70943;BME280;59154;51.970;5.650;2023-05-22T18:50:03;101500;;;25.72361;57.3
70943;BME280;59154;51.970;5.650;2023-05-22T18:55:03;101500;;;25.45911;56.5
70943;BME280;59154;51.970;5.650;2023-05-22T19:00:04;101500;;;25.25566;58.7
70943;BME280;59154;51.970;5.650;2023-05-22T19:05:03;101500;;;24.91487;59.9
70943;BME280;59154;51.970;5.650;2023-05-22T19:25:03;101500;;;24.27398;63.0
70943;BME280;59154;51.970;5.650;2023-05-22T19:30:03;101500;;;24.16717;60.8
70943;BME280;59154;51.970;5.650;2023-05-22T19:35:18;101500;;;23.86707;63.0
70943;BME280;59154;51.970;5.650;2023-05-22T19:40:05;101600;;;23.97388;62.5
70943;BME280;59154;51.970;5.650;2023-05-22T19:45:03;101600;;;23.81112;65.0
70943;BME280;59154;51.970;5.650;2023-05-22T19:50:03;101600;;;23.56189;63.4
70943;BME280;59154;51.970;5.650;2023-05-22T19:55:03;101600;;;23.58223;64.5
70943;BME280;59154;51.970;5.650;2023-05-22T20:00:04;101600;;;23.42964;65.2
70943;BME280;59154;51.970;5.650;2023-05-22T20:05:02;101600;;;23.27197;65.9
70943;BME280;59154;51.970;5.650;2023-05-22T20:10:03;101600;;;23.32283;66.5
70943;BME280;59154;51.970;5.650;2023-05-22T20:15:02;101600;;;23.14481;65.9
70943;BME280;59154;51.970;5.650;2023-05-22T20:20:03;101600;;;22.94136;66.6
70943;BME280;59154;51.970;5.650;2023-05-22T20:25:03;101600;;;22.89558;65.9
70943;BME280;59154;51.970;5.650;2023-05-22T20:30:03;101600;;;22.86506;66.9
70943;BME280;59154;51.970;5.650;2023-05-22T20:35:03;101600;;;22.78368;67.6
70943;BME280;59154;51.970;5.650;2023-05-22T20:40:04;101600;;;22.76334;67.5
70943;BME280;59154;51.970;5.650;2023-05-22T20:45:02;101600;;;22.42256;69.0
70943;BME280;59154;51.970;5.650;2023-05-22T20:50:03;101600;;;22.08178;69.4
70943;BME280;59154;51.970;5.650;2023-05-22T20:55:06;101600;;;22.45307;69.4
70943;BME280;59154;51.970;5.650;2023-05-22T21:00:05;101600;;;22.19367;69.9
70943;BME280;59154;51.970;5.650;2023-05-22T21:05:02;101700;;;22.19367;70.0
70943;BME280;59154;51.970;5.650;2023-05-22T21:25:03;101700;;;21.83255;70.8
70943;BME280;59154;51.970;5.650;2023-05-22T21:30:03;101700;;;22.18859;70.5
70943;BME280;59154;51.970;5.650;2023-05-22T21:35:03;101700;;;21.37988;70.1
70943;BME280;59154;51.970;5.650;2023-05-22T21:40:03;101700;;;21.77152;69.3
70943;BME280;59154;51.970;5.650;2023-05-22T21:45:03;101700;;;21.98005;69.5
70943;BME280;59154;51.970;5.650;2023-05-22T21:50:03;101700;;;21.56298;69.9
70943;BME280;59154;51.970;5.650;2023-05-22T21:55:03;101700;;;21.50195;68.3
70943;BME280;59154;51.970;5.650;2023-05-22T22:00:03;101700;;;21.21712;69.2
70943;BME280;59154;51.970;5.650;2023-05-22T22:05:03;101700;;;21.40022;70.2
70943;BME280;59154;51.970;5.650;2023-05-22T22:10:02;101700;;;21.446;69.7
70943;BME280;59154;51.970;5.650;2023-05-22T22:15:03;101700;;;21.21712;69.6
70943;BME280;59154;51.970;5.650;2023-05-22T22:20:04;101700;;;21.27815;69.2
70943;BME280;59154;51.970;5.650;2023-05-22T22:25:02;101700;;;21.47143;68.8
70943;BME280;59154;51.970;5.650;2023-05-22T22:30:03;101700;;;21.31884;68.9
70943;BME280;59154;51.970;5.650;2023-05-22T23:50:35;101700;;;20.3016;69.9
